RJSN

Niigata Airport

Niigata, Japan
TAF RJSN 202305Z 2100/2206 25010KT 9999 FEW030 BECMG 2110/2112 18005KT BECMG 2121/2200 22010KT
Issued Valid From Valid To
Apr-20 @ 23:05 UTC
(5 hours ago)
Apr-21 @ 00:00 UTC
(4 hours ago)
Apr-22 @ 06:00 UTC
(-1 days ago)
Apr-21 @ 00:00 to Apr-21 @ 10:00
TAF RJSN 202305Z 2100/2206 25010KT 9999 FEW030
Wind Visibility Clouds
250° at 10 knots 10,000+ meters
  • Few at 3,000' AGL
Becoming Apr-21 @ 10:00 to Apr-21 @ 21:00
BECMG 2110/2112 18005KT
Wind Visibility Clouds
180° at 5 knots 10,000+ meters
  • Few at 3,000' AGL
Becoming Apr-21 @ 21:00 to Apr-22 @ 06:00
BECMG 2121/2200 22010KT
Wind Visibility Clouds
220° at 10 knots 10,000+ meters
  • Few at 3,000' AGL
TAF RJSN 202305Z 2100/2206 25010KT 9999 FEW030 BECMG 2110/2112 18005KT BECMG 2121/2200 22010KT
Issued Apr-20 @ 23:05 UTC
(5 hours ago)
Valid From Apr-21 @ 00:00 UTC
(4 hours ago)
Valid To Apr-22 @ 06:00 UTC
(-1 days ago)
Apr-21 @ 00:00 - Apr-21 @ 10:00
Wind Visibility
250° at 10 knots 10,000+ meters
Clouds
  • Few at 3,000' AGL
Becoming Apr-21 @ 10:00 - Apr-21 @ 21:00
Wind Visibility
180° at 5 knots 10,000+ meters
Clouds
  • Few at 3,000' AGL
Becoming Apr-21 @ 21:00 - Apr-22 @ 06:00
Wind Visibility
220° at 10 knots 10,000+ meters
Clouds
  • Few at 3,000' AGL